createdAt,value
2022-10-29T00:02:17.793Z,10.80
2022-10-29T00:04:44.494Z,10.60
2022-10-29T00:07:11.265Z,10.60
2022-10-29T00:09:37.935Z,10.60
2022-10-29T00:12:04.756Z,10.70
2022-10-29T00:14:31.487Z,10.40
2022-10-29T00:16:58.242Z,10.60
2022-10-29T00:19:26.016Z,9.60
2022-10-29T00:21:52.712Z,10.30
2022-10-29T00:24:19.416Z,10.50
2022-10-29T00:26:46.163Z,10.30
2022-10-29T00:29:12.882Z,10.30
2022-10-29T00:31:39.631Z,10.30
2022-10-29T00:34:06.436Z,10.30
2022-10-29T00:36:33.213Z,10.20
2022-10-29T00:38:59.929Z,10.10
2022-10-29T00:41:28.761Z,10.30
2022-10-29T00:44:20.528Z,10.00
2022-10-29T00:46:52.982Z,10.00
2022-10-29T00:49:20.593Z,10.60
2022-10-29T00:51:48.395Z,9.90
2022-10-29T00:54:19.116Z,10.00
2022-10-29T00:56:58.292Z,9.90
2022-10-29T00:59:25.460Z,9.80
2022-10-29T01:01:52.571Z,9.90
2022-10-29T01:04:20.387Z,9.70
2022-10-29T01:06:48.214Z,9.80
2022-10-29T01:09:14.905Z,9.80
2022-10-29T01:12:08.105Z,9.70
2022-10-29T01:14:57.233Z,9.60
2022-10-29T01:17:58.663Z,9.70
2022-10-29T01:20:51.778Z,9.50
2022-10-29T01:23:40.116Z,9.50
2022-10-29T01:26:18.064Z,9.50
2022-10-29T01:29:17.027Z,9.70
2022-10-29T01:31:52.642Z,9.50
2022-10-29T01:34:39.692Z,9.50
2022-10-29T01:37:20.859Z,9.40
2022-10-29T01:39:58.557Z,9.40
2022-10-29T01:42:31.210Z,9.30
2022-10-29T01:45:27.075Z,9.30
2022-10-29T08:36:38.061Z,16.90
2022-10-29T08:39:04.777Z,17.90
2022-10-29T08:41:34.257Z,18.20
2022-10-29T08:44:33.618Z,18.00
2022-10-29T08:47:16.369Z,17.70
2022-10-29T08:49:46.204Z,17.30
2022-10-29T08:52:20.247Z,16.90
2022-10-29T08:55:00.205Z,16.50
2022-10-29T08:57:31.940Z,16.30
2022-10-29T09:00:13.533Z,16.10
2022-10-29T09:02:40.431Z,16.00
2022-10-29T09:05:16.814Z,16.00
2022-10-29T09:08:05.196Z,15.90
2022-10-29T09:10:55.874Z,16.00
2022-10-29T09:13:47.824Z,16.20
2022-10-29T09:16:16.476Z,16.40
2022-10-29T09:19:16.153Z,16.70
2022-10-29T09:21:57.784Z,16.90
2022-10-29T09:24:57.394Z,17.20
2022-10-29T09:27:41.027Z,17.70
2022-10-29T09:30:18.791Z,17.90
2022-10-29T09:33:00.698Z,18.00
2022-10-29T09:35:46.960Z,17.90
2022-10-29T09:38:29.457Z,17.90
2022-10-29T09:40:58.819Z,17.90
2022-10-29T09:44:12.916Z,18.10
2022-10-29T09:47:21.101Z,18.00
2022-10-29T09:49:57.229Z,18.10
2022-10-29T09:52:29.153Z,18.20
2022-10-29T09:54:57.358Z,18.20
2022-10-29T09:57:29.476Z,18.40
2022-10-29T10:00:04.616Z,18.60
2022-10-29T10:02:42.840Z,18.60
2022-10-29T10:05:12.438Z,18.90
2022-10-29T10:07:39.974Z,19.10
2022-10-29T10:10:21.471Z,19.30
2022-10-29T10:12:49.879Z,19.70
2022-10-29T10:15:16.539Z,19.90
2022-10-29T10:18:03.015Z,20.20
2022-10-29T10:20:33.358Z,20.10
2022-10-29T10:23:00.406Z,20.20
2022-10-29T10:25:37.082Z,20.80
2022-10-29T10:28:25.334Z,22.30
2022-10-29T10:31:16.308Z,24.70
2022-10-29T10:33:51.918Z,26.10
2022-10-29T10:36:21.704Z,25.80
2022-10-29T10:38:55.657Z,25.00
2022-10-29T10:41:35.474Z,24.60
2022-10-29T10:44:05.036Z,25.40
2022-10-29T10:46:43.358Z,26.40
2022-10-29T10:49:26.955Z,26.90
2022-10-29T10:51:56.306Z,27.20
2022-10-29T10:54:38.971Z,27.00
2022-10-29T10:57:11.762Z,26.30
2022-10-29T11:00:03.065Z,25.60
2022-10-29T11:02:38.641Z,24.90
2022-10-29T11:05:31.594Z,24.80
2022-10-29T11:08:13.054Z,24.00
2022-10-29T11:10:52.894Z,24.30
2022-10-29T11:13:29.731Z,24.60
2022-10-29T11:15:58.382Z,24.80
2022-10-29T11:18:35.095Z,24.90
2022-10-29T11:21:07.626Z,25.50
2022-10-29T11:23:34.296Z,26.50
2022-10-29T11:26:11.343Z,27.20
2022-10-29T11:28:54.756Z,27.70
2022-10-29T11:31:55.581Z,28.10
2022-10-29T11:34:39.743Z,28.50
2022-10-29T11:37:23.188Z,27.90
2022-10-29T11:39:58.048Z,27.20
2022-10-29T11:42:25.724Z,26.80
2022-10-29T11:44:52.657Z,26.80
2022-10-29T11:47:28.243Z,26.30
2022-10-29T11:50:28.096Z,25.80
2022-10-29T11:53:32.623Z,25.10
2022-10-29T11:56:11.674Z,24.20
2022-10-29T11:58:46.004Z,23.90
2022-10-29T12:01:17.741Z,24.10
2022-10-29T12:04:02.058Z,24.70
2022-10-29T12:06:54.909Z,25.10
2022-10-29T12:09:59.442Z,25.80
2022-10-29T12:12:31.327Z,26.60
2022-10-29T12:15:19.680Z,27.10
2022-10-29T12:18:24.513Z,27.60
2022-10-29T12:20:55.182Z,27.60
2022-10-29T12:23:54.482Z,27.30
2022-10-29T12:26:37.602Z,27.10
2022-10-29T12:29:15.828Z,26.60
2022-10-29T12:31:48.459Z,26.10
2022-10-29T12:34:22.353Z,25.60
2022-10-29T12:36:59.552Z,25.10
2022-10-29T12:39:41.042Z,24.90
2022-10-29T12:42:19.110Z,24.60
2022-10-29T12:45:06.437Z,24.40
2022-10-29T12:47:51.334Z,24.40
2022-10-29T12:50:48.988Z,24.40
2022-10-29T12:53:32.599Z,24.50
2022-10-29T12:55:59.295Z,24.60
2022-10-29T12:58:44.364Z,24.50
2022-10-29T13:04:25.201Z,24.60
2022-10-29T13:07:02.631Z,24.70
2022-10-29T13:09:36.021Z,24.70
2022-10-29T13:12:10.158Z,24.50
2022-10-29T13:14:41.754Z,24.40
2022-10-29T13:17:35.476Z,24.40
2022-10-29T13:20:22.282Z,24.30
2022-10-29T13:22:52.993Z,24.20
2022-10-29T13:25:37.754Z,24.10
2022-10-29T13:28:07.459Z,24.00
2022-10-29T13:30:36.022Z,23.90
2022-10-29T13:33:28.334Z,23.90
2022-10-29T13:36:05.878Z,23.80
2022-10-29T13:39:05.113Z,23.80
2022-10-29T13:41:49.227Z,23.60
2022-10-29T13:44:24.298Z,23.30
2022-10-29T13:47:14.839Z,23.00
2022-10-29T13:49:45.323Z,22.70
2022-10-29T13:52:16.435Z,22.50
2022-10-29T13:54:49.153Z,22.30
2022-10-29T13:57:31.531Z,22.30
2022-10-29T14:00:06.171Z,22.20
2022-10-29T14:02:59.972Z,22.20
2022-10-29T14:05:46.781Z,22.20
2022-10-29T14:08:39.777Z,22.20
2022-10-29T14:11:17.207Z,22.20
2022-10-29T14:13:49.065Z,22.20
2022-10-29T14:16:20.432Z,22.20
2022-10-29T14:18:50.462Z,22.20
2022-10-29T14:21:23.539Z,21.80
2022-10-29T14:24:10.405Z,22.20
2022-10-29T14:26:42.654Z,22.20
2022-10-29T14:29:23.068Z,22.20
2022-10-29T14:32:06.317Z,22.20
2022-10-29T14:34:34.032Z,22.20
2022-10-29T14:37:11.284Z,22.10
2022-10-29T14:39:58.113Z,21.90
2022-10-29T14:42:40.714Z,21.90
2022-10-29T14:45:19.404Z,21.80
2022-10-29T14:47:55.132Z,21.70
2022-10-29T14:50:25.824Z,21.60
2022-10-29T14:53:05.068Z,21.60
2022-10-29T14:55:37.047Z,21.50
2022-10-29T14:58:14.281Z,21.40
2022-10-29T15:00:58.624Z,21.20
2022-10-29T15:03:30.031Z,21.10
2022-10-29T15:06:20.110Z,21.10
2022-10-29T15:09:14.853Z,20.90
2022-10-29T15:12:03.189Z,20.70
2022-10-29T15:14:45.911Z,20.50
2022-10-29T15:17:42.882Z,20.10
2022-10-29T15:20:23.884Z,20.10
2022-10-29T15:22:55.814Z,19.90
2022-10-29T15:25:36.484Z,19.80
2022-10-29T15:28:04.115Z,19.70
2022-10-29T15:30:36.931Z,19.50
2022-10-29T15:33:14.963Z,19.40
2022-10-29T15:35:51.824Z,19.20
2022-10-29T15:38:52.178Z,19.20
2022-10-29T15:41:19.327Z,19.00
2022-10-29T15:43:57.552Z,18.80
2022-10-29T15:46:29.674Z,18.60
2022-10-29T15:48:57.078Z,18.50
2022-10-29T15:51:28.823Z,18.30
2022-10-29T15:53:57.636Z,18.20
2022-10-29T15:56:25.448Z,18.00
2022-10-29T15:58:53.214Z,17.90
2022-10-29T16:01:20.302Z,17.70
2022-10-29T16:03:47.314Z,17.60
2022-10-29T16:06:15.885Z,17.50
2022-10-29T16:08:57.027Z,17.30
2022-10-29T16:11:24.599Z,17.40
2022-10-29T16:13:55.266Z,17.10
2022-10-29T16:16:24.526Z,17.00
2022-10-29T16:18:52.727Z,16.90
2022-10-29T16:21:26.980Z,16.80
2022-10-29T16:27:06.295Z,16.70
2022-10-29T16:33:25.733Z,16.50
2022-10-29T16:35:56.217Z,16.40
2022-10-29T16:38:25.037Z,16.30
2022-10-29T16:40:53.524Z,16.20
2022-10-29T16:43:21.941Z,16.20
2022-10-29T16:45:50.476Z,16.10
2022-10-29T16:48:19.118Z,16.10
2022-10-29T16:51:22.541Z,16.00
2022-10-29T16:53:51.189Z,15.90
2022-10-29T16:56:20.136Z,15.80
2022-10-29T16:59:02.104Z,15.80
2022-10-29T17:01:30.881Z,15.70
2022-10-29T17:06:53.671Z,15.60
2022-10-29T17:09:26.257Z,15.60
2022-10-29T17:12:23.058Z,15.60
2022-10-29T17:14:51.498Z,15.50
2022-10-29T17:17:20.181Z,15.50
2022-10-29T17:20:53.513Z,15.50
2022-10-29T17:23:34.451Z,15.50
2022-10-29T17:26:04.820Z,15.40
2022-10-29T17:28:39.554Z,15.30
2022-10-29T17:31:09.419Z,15.40
2022-10-29T17:33:39.651Z,15.30
2022-10-29T17:36:14.298Z,15.30
2022-10-29T17:38:43.253Z,15.20
2022-10-29T17:41:45.265Z,15.10
2022-10-29T17:44:15.296Z,15.10
2022-10-29T17:46:44.882Z,15.00
2022-10-29T17:49:14.254Z,14.90
2022-10-29T17:51:45.154Z,14.90
2022-10-29T17:54:50.627Z,14.90
2022-10-29T17:57:37.780Z,14.80
2022-10-29T18:00:08.845Z,14.70
2022-10-29T18:02:37.641Z,14.70
2022-10-29T18:05:07.295Z,14.60
2022-10-29T18:07:35.950Z,14.50
2022-10-29T18:10:05.133Z,14.40
2022-10-29T18:12:36.434Z,14.40
2022-10-29T18:15:06.259Z,14.20
2022-10-29T18:17:34.845Z,14.20
2022-10-29T18:20:03.624Z,14.20
2022-10-29T18:22:36.478Z,14.10
2022-10-29T18:25:04.830Z,14.10
2022-10-29T18:31:00.162Z,14.10
2022-10-29T18:34:09.132Z,14.00
2022-10-29T18:36:37.390Z,14.00
2022-10-29T18:39:17.029Z,14.00
2022-10-29T18:41:45.722Z,13.90
2022-10-29T18:44:14.195Z,13.80
2022-10-29T18:46:45.166Z,13.80
2022-10-29T18:49:14.263Z,13.70
2022-10-29T18:51:41.028Z,13.70
2022-10-29T18:54:09.559Z,13.90
2022-10-29T18:56:36.459Z,13.70
2022-10-29T18:59:03.151Z,13.70
2022-10-29T19:01:32.558Z,13.50
2022-10-29T19:04:01.476Z,13.70
2022-10-29T19:06:30.815Z,13.80
2022-10-29T19:08:58.989Z,13.50
2022-10-29T19:11:27.175Z,13.40
2022-10-29T19:13:59.997Z,13.50
2022-10-29T19:16:27.411Z,13.90
2022-10-29T19:19:03.387Z,13.30
2022-10-29T19:21:30.733Z,13.30
2022-10-29T19:23:59.519Z,13.80
2022-10-29T19:26:28.780Z,13.30
2022-10-29T19:28:58.503Z,13.30
2022-10-29T19:31:27.796Z,13.30
2022-10-29T19:33:57.183Z,13.20
2022-10-29T19:36:25.076Z,13.20
2022-10-29T19:38:51.860Z,13.10
2022-10-29T19:41:19.463Z,13.00
2022-10-29T19:43:46.966Z,12.90
2022-10-29T19:46:16.636Z,13.30
2022-10-29T19:48:43.576Z,12.90
2022-10-29T19:51:10.855Z,12.90
2022-10-29T19:53:39.128Z,12.70
2022-10-29T19:56:12.238Z,12.70
2022-10-29T19:58:38.982Z,12.60
2022-10-29T20:01:11.356Z,12.70
2022-10-29T20:03:38.139Z,12.60
2022-10-29T20:06:06.507Z,12.40
2022-10-29T20:08:33.369Z,12.30
2022-10-29T20:11:00.577Z,12.30
2022-10-29T20:13:27.632Z,12.40
2022-10-29T20:15:54.971Z,12.30
2022-10-29T20:18:22.218Z,12.40
2022-10-29T20:20:57.993Z,12.40
2022-10-29T20:23:27.447Z,12.50
2022-10-29T20:25:56.220Z,12.30
2022-10-29T20:28:23.025Z,12.30
2022-10-29T20:30:49.769Z,12.30
2022-10-29T20:33:16.544Z,12.30
2022-10-29T20:35:43.342Z,12.50
2022-10-29T20:38:10.036Z,12.30
2022-10-29T20:40:37.225Z,12.40
2022-10-29T20:43:04.022Z,12.60
2022-10-29T20:45:30.735Z,12.40
2022-10-29T20:47:57.694Z,12.30
2022-10-29T20:50:24.781Z,12.20
2022-10-29T20:52:53.853Z,12.00
2022-10-29T20:55:20.541Z,12.00
2022-10-29T20:57:47.333Z,12.20
2022-10-29T21:00:14.464Z,12.10
2022-10-29T21:02:41.706Z,11.90
2022-10-29T21:05:08.812Z,11.90
2022-10-29T21:07:35.666Z,11.80
2022-10-29T21:10:02.329Z,11.80
2022-10-29T21:12:29.047Z,11.70
2022-10-29T21:14:55.825Z,11.70
2022-10-29T21:17:22.560Z,11.70
2022-10-29T21:19:49.632Z,11.40
2022-10-29T21:22:18.929Z,11.80
2022-10-29T21:24:47.534Z,11.30
2022-10-29T21:27:14.227Z,11.20
2022-10-29T21:29:40.971Z,11.40
2022-10-29T21:32:11.315Z,11.40
2022-10-29T21:34:43.633Z,11.30
2022-10-29T21:37:10.325Z,11.20
2022-10-29T21:39:37.009Z,11.40
2022-10-29T21:42:03.862Z,11.30
2022-10-29T21:44:30.590Z,11.10
2022-10-29T21:46:57.407Z,11.20
2022-10-29T21:49:24.132Z,11.20
2022-10-29T21:51:50.829Z,11.20
2022-10-29T21:54:17.481Z,11.30
2022-10-29T21:56:44.177Z,11.30
2022-10-29T21:59:10.855Z,11.40
2022-10-29T22:01:37.762Z,11.50
2022-10-29T22:04:04.773Z,11.30
2022-10-29T22:06:31.523Z,11.10
2022-10-29T22:08:59.668Z,11.00
2022-10-29T22:11:28.190Z,11.10
2022-10-29T22:13:55.376Z,11.10
2022-10-29T22:16:23.304Z,11.30
2022-10-29T22:18:50.936Z,11.00
2022-10-29T22:21:20.709Z,11.20
2022-10-29T22:23:55.825Z,11.20
2022-10-29T22:26:25.754Z,11.20
2022-10-29T22:28:52.747Z,11.10
2022-10-29T22:31:21.111Z,11.00
2022-10-29T22:33:48.234Z,11.00
2022-10-29T22:36:20.600Z,11.00
2022-10-29T22:38:47.379Z,10.90
2022-10-29T22:41:16.540Z,11.00
2022-10-29T22:43:44.163Z,11.10
2022-10-29T22:46:13.444Z,11.10
2022-10-29T22:48:40.579Z,10.90
2022-10-29T22:51:12.987Z,10.80
2022-10-29T22:53:39.672Z,10.90
2022-10-29T22:56:07.311Z,11.20
2022-10-29T22:58:34.100Z,11.00
2022-10-29T23:01:09.528Z,11.00
2022-10-29T23:03:37.589Z,11.00
2022-10-29T23:06:05.664Z,10.90
2022-10-29T23:08:32.836Z,10.90
2022-10-29T23:11:08.778Z,10.90
2022-10-29T23:13:35.456Z,10.80
2022-10-29T23:16:02.242Z,11.10
2022-10-29T23:18:28.952Z,10.90
2022-10-29T23:21:00.445Z,10.90
2022-10-29T23:23:27.528Z,10.80
2022-10-29T23:25:57.839Z,10.80
2022-10-29T23:28:24.560Z,10.90
2022-10-29T23:30:55.340Z,10.80
2022-10-29T23:33:22.729Z,10.80
2022-10-29T23:35:49.894Z,10.80
2022-10-29T23:38:17.299Z,10.90
2022-10-29T23:40:45.138Z,10.90
2022-10-29T23:43:12.344Z,10.70
2022-10-29T23:45:42.991Z,10.70
2022-10-29T23:48:10.143Z,10.70
2022-10-29T23:50:37.886Z,10.60
2022-10-29T23:53:05.136Z,10.70
2022-10-29T23:55:31.865Z,10.70
2022-10-29T23:57:58.684Z,10.70
